Terminal Aerodrome Forecast
Issued by NWS Detroit/Pontiac, MI

Home | Current Version | Previous Version | Text Only | Print | Product List | Glossary On
Versions: 1 2 3 4 5 6 7 8 9 10 11 12 13 14 15 16 17 18 19 20 21 22
000
FTUS43 KDTX 182320
TAFFNT
TAF
KFNT 182320Z 1900/1924 23007KT P6SM OVC009
     FM190600 21005KT 5SM BR OVC006
     FM190900 21004KT 2SM BR BKN004
     FM191400 20006KT 5SM BR SCT006 OVC015
     FM191800 18006KT P6SM BKN015
     FM192200 12005KT P6SM SCT015=

USA.gov is the U.S. government's official web portal to all federal, state and local government web resources and services.